Time;durP1;ratioP1;P1;durP2;ratioP2;P2;SDS_P1;SDS_P2;PMS_P1;PMS_P2;Temp;Humidity;BMP_temperature;BMP_pressure;BME280_temperature;BME280_humidity;BME280_pressure;Samples;Min_cycle;Max_cycle;Signal;HPM_P1;HPM_P2
2023/10/08 00:00:46;;;;;;;6.53;2.70;;;;;;;12.07;82.88;98079.78;5037799;28;21584;-61
2023/10/08 00:03:14;;;;;;;7.80;2.50;;;;;;;12.54;79.69;98083.25;5046198;28;20115;-63
2023/10/08 00:05:41;;;;;;;8.32;2.58;;;;;;;12.75;78.44;98074.34;5046260;28;20043;-61
2023/10/08 00:08:09;;;;;;;8.70;3.05;;;;;;;12.69;79.47;98075.38;5030422;28;20037;-61
2023/10/08 00:10:39;;;;;;;9.23;3.22;;;;;;;12.61;79.82;98076.59;5046195;28;20041;-61
2023/10/08 00:13:09;;;;;;;6.82;2.75;;;;;;;12.59;80.16;98076.03;5036110;28;20040;-61
2023/10/08 00:15:36;;;;;;;9.00;2.58;;;;;;;12.63;79.21;98080.97;5037521;28;20057;-61
2023/10/08 00:18:11;;;;;;;5.93;2.53;;;;;;;12.63;79.32;98070.91;5037654;28;20055;-63
2023/10/08 00:20:54;;;;;;;7.05;2.75;;;;;;;12.61;80.20;98071.16;5038036;28;20045;-62
2023/10/08 00:23:21;;;;;;;6.70;2.20;;;;;;;12.58;80.95;98071.66;5037455;28;20044;-61
2023/10/08 00:25:50;;;;;;;6.10;2.40;;;;;;;12.61;81.15;98076.59;5038290;28;20567;-62
2023/10/08 00:28:17;;;;;;;8.65;3.15;;;;;;;12.61;81.17;98075.78;5030034;28;20072;-61
2023/10/08 00:30:44;;;;;;;6.72;2.70;;;;;;;12.61;81.19;98075.78;5043207;28;20049;-61
2023/10/08 00:33:14;;;;;;;8.00;3.58;;;;;;;12.58;80.36;98079.81;5041849;28;20045;-62
2023/10/08 00:35:41;;;;;;;6.07;2.80;;;;;;;12.56;81.18;98081.94;5035688;28;20049;-62
2023/10/08 00:38:14;;;;;;;6.07;2.55;;;;;;;12.59;80.78;98075.19;5035655;28;20032;-61
2023/10/08 00:40:45;;;;;;;6.47;2.55;;;;;;;12.39;83.94;98081.97;5036129;28;20388;-62
2023/10/08 00:43:34;;;;;;;5.22;2.25;;;;;;;12.34;84.37;98063.69;5042396;28;20524;-62
2023/10/08 00:46:21;;;;;;;7.53;3.10;;;;;;;12.20;85.83;98070.50;5038272;28;20689;-61
2023/10/08 00:48:49;;;;;;;6.50;2.78;;;;;;;12.07;86.39;98063.47;5032307;28;20041;-62
2023/10/08 00:54:10;;;;;;;6.75;2.40;;;;;;;11.92;88.29;98055.84;5036919;28;20045;-61
2023/10/08 00:59:21;;;;;;;5.72;2.10;;;;;;;11.89;90.14;98053.63;5034740;28;20047;-62
2023/10/08 01:01:54;;;;;;;7.38;2.90;;;;;;;11.91;91.50;98049.59;5041981;28;20098;-61
2023/10/08 01:04:22;;;;;;;8.10;3.08;;;;;;;11.91;91.70;98048.78;5036286;28;20128;-62
2023/10/08 01:06:59;;;;;;;6.70;2.58;;;;;;;11.90;91.38;98045.25;5036406;28;20487;-62
2023/10/08 01:09:35;;;;;;;6.38;2.28;;;;;;;11.90;91.25;98045.25;5044932;28;20123;-62
2023/10/08 01:12:27;;;;;;;6.45;2.47;;;;;;;11.85;93.17;98039.72;5037116;28;20099;-62
2023/10/08 01:14:54;;;;;;;7.95;2.53;;;;;;;11.75;94.67;98042.28;5043232;28;20044;-62
2023/10/08 01:17:31;;;;;;;7.88;2.67;;;;;;;11.64;95.66;98044.78;5029730;28;20129;-62
2023/10/08 01:20:19;;;;;;;5.72;2.13;;;;;;;11.54;96.79;98045.41;5045574;28;20030;-63
2023/10/08 01:22:46;;;;;;;7.47;2.92;;;;;;;11.44;96.89;98045.22;5037257;28;20051;-61
2023/10/08 01:25:21;;;;;;;5.65;2.08;;;;;;;11.43;96.96;98036.25;5046257;28;20052;-61
2023/10/08 01:27:47;;;;;;;5.40;2.30;;;;;;;11.31;97.63;98049.00;5036201;28;20049;-61
2023/10/08 01:30:20;;;;;;;6.05;1.95;;;;;;;11.25;97.97;98041.84;5037089;28;20056;-61
2023/10/08 01:32:47;;;;;;;5.75;2.42;;;;;;;11.09;98.28;98041.53;5040971;28;20046;-62
2023/10/08 01:35:23;;;;;;;5.93;2.13;;;;;;;11.02;98.60;98048.97;5036357;28;20447;-62
2023/10/08 01:37:50;;;;;;;6.38;2.30;;;;;;;10.98;99.10;98053.22;5043549;28;20043;-61
2023/10/08 01:40:20;;;;;;;6.07;2.00;;;;;;;10.93;98.78;98053.94;5043326;28;20048;-61
2023/10/08 01:42:51;;;;;;;7.20;2.53;;;;;;;10.76;99.57;98059.25;5039112;28;20595;-61
2023/10/08 01:45:18;;;;;;;5.20;2.35;;;;;;;10.70;99.55;98057.47;5042959;28;20044;-62
2023/10/08 01:47:50;;;;;;;4.72;2.20;;;;;;;10.51;100.00;98061.09;5034830;28;20052;-61
2023/10/08 01:50:29;;;;;;;7.10;2.45;;;;;;;10.52;100.00;98059.22;5044543;28;20032;-61
2023/10/08 01:52:56;;;;;;;5.40;2.35;;;;;;;10.61;100.00;98065.13;5038032;28;20095;-61
2023/10/08 01:55:22;;;;;;;4.43;2.15;;;;;;;10.56;100.00;98059.59;5035965;28;20055;-62
2023/10/08 01:57:53;;;;;;;6.15;2.30;;;;;;;10.46;100.00;98062.91;5037719;28;20069;-61
2023/10/08 02:00:20;;;;;;;9.32;2.50;;;;;;;10.22;100.00;98068.22;5035714;28;20115;-63
2023/10/08 02:02:47;;;;;;;6.40;2.33;;;;;;;10.00;100.00;98066.88;5031140;28;20542;-61
2023/10/08 02:05:18;;;;;;;5.72;1.77;;;;;;;9.92;100.00;98066.38;5041135;28;20052;-61
2023/10/08 02:07:45;;;;;;;9.32;2.03;;;;;;;9.79;100.00;98064.69;5039974;28;20103;-62
2023/10/08 02:10:14;;;;;;;7.82;2.13;;;;;;;9.80;100.00;98064.47;5036695;28;20694;-61
2023/10/08 02:12:41;;;;;;;10.05;2.65;;;;;;;9.81;100.00;98051.78;5035524;28;20051;-62
2023/10/08 02:15:11;;;;;;;10.23;2.30;;;;;;;9.82;100.00;98058.81;5036663;28;20048;-62
2023/10/08 02:17:38;;;;;;;7.25;2.47;;;;;;;9.88;100.00;98056.03;5038626;28;20044;-62
2023/10/08 02:20:06;;;;;;;6.00;2.10;;;;;;;9.94;100.00;98058.84;5037828;28;20064;-62
2023/10/08 02:22:32;;;;;;;7.22;2.20;;;;;;;10.04;100.00;98061.00;5044196;28;20065;-61
2023/10/08 02:25:01;;;;;;;5.97;2.38;;;;;;;10.14;100.00;98059.38;5044229;28;20068;-61
2023/10/08 02:27:28;;;;;;;6.03;2.17;;;;;;;10.09;100.00;98067.38;5037339;28;20527;-61
2023/10/08 02:29:55;;;;;;;4.38;1.70;;;;;;;10.04;100.00;98066.41;5036222;28;20045;-61
2023/10/08 02:32:24;;;;;;;7.63;2.33;;;;;;;9.90;100.00;98069.31;5036105;28;20049;-63
2023/10/08 02:34:51;;;;;;;7.10;2.63;;;;;;;9.63;100.00;98072.41;5041906;28;20037;-62
2023/10/08 02:37:19;;;;;;;5.28;2.10;;;;;;;9.68;100.00;98082.53;5043219;28;20045;-62
2023/10/08 02:39:46;;;;;;;6.05;2.08;;;;;;;9.56;100.00;98082.47;5040539;28;20037;-62
2023/10/08 02:42:14;;;;;;;6.07;2.03;;;;;;;9.56;100.00;98079.78;5042591;28;20045;-61
2023/10/08 02:44:41;;;;;;;6.50;2.15;;;;;;;9.49;100.00;98083.41;5042657;28;20469;-62
2023/10/08 02:47:28;;;;;;;6.93;2.10;;;;;;;9.57;100.00;98074.13;5037713;28;20052;-61
2023/10/08 02:49:55;;;;;;;3.97;1.85;;;;;;;9.59;100.00;98074.72;5039436;28;20040;-62
2023/10/08 02:52:21;;;;;;;5.20;1.88;;;;;;;9.69;100.00;98073.38;5035776;28;20053;-61
2023/10/08 02:54:52;;;;;;;6.68;2.10;;;;;;;9.74;100.00;98068.09;5042081;28;20540;-61
2023/10/08 02:57:21;;;;;;;5.90;2.42;;;;;;;9.80;100.00;98069.88;5039214;28;20119;-62
2023/10/08 02:59:49;;;;;;;5.40;2.20;;;;;;;9.93;100.00;98068.03;5041054;28;20109;-62
2023/10/08 03:02:18;;;;;;;8.02;2.53;;;;;;;9.99;100.00;98070.63;5038779;28;20521;-61
2023/10/08 03:04:47;;;;;;;6.93;2.97;;;;;;;10.18;100.00;98078.72;5033260;28;20049;-61
2023/10/08 03:07:32;;;;;;;9.05;2.28;;;;;;;10.22;100.00;98074.47;5035890;28;20047;-62
2023/10/08 03:10:06;;;;;;;7.15;2.20;;;;;;;10.07;100.00;98066.78;5040960;28;20064;-62
2023/10/08 03:12:33;;;;;;;4.85;1.75;;;;;;;10.04;100.00;98058.31;5026092;28;20118;-62
2023/10/08 03:17:51;;;;;;;4.82;2.00;;;;;;;9.94;100.00;98056.97;5037731;28;20519;-62
2023/10/08 03:23:33;;;;;;;7.00;2.05;;;;;;;9.92;100.00;98059.13;5045857;28;20231;-62
2023/10/08 03:26:11;;;;;;;6.43;2.22;;;;;;;9.92;100.00;98042.03;5043009;28;20045;-61
2023/10/08 03:28:41;;;;;;;7.13;1.98;;;;;;;10.08;100.00;98048.66;5033009;28;20064;-62
2023/10/08 03:31:17;;;;;;;6.65;2.13;;;;;;;9.97;100.00;98051.13;5037011;28;20041;-62
2023/10/08 03:33:51;;;;;;;4.60;2.13;;;;;;;9.92;100.00;98056.41;5030883;28;20535;-61
2023/10/08 03:36:21;;;;;;;5.45;2.03;;;;;;;9.89;100.00;98046.03;5042119;28;20088;-62
2023/10/08 03:38:50;;;;;;;7.32;2.03;;;;;;;9.97;100.00;98050.28;5033618;28;20045;-62
2023/10/08 03:41:27;;;;;;;10.25;2.42;;;;;;;10.02;100.00;98059.38;5045841;28;20047;-61
2023/10/08 03:44:01;;;;;;;5.72;2.05;;;;;;;10.10;100.00;98068.22;5037827;28;20114;-62
2023/10/08 03:46:29;;;;;;;7.47;2.38;;;;;;;10.13;100.00;98063.16;5037308;28;20037;-61
2023/10/08 03:48:57;;;;;;;7.45;2.17;;;;;;;10.14;100.00;98069.41;5048713;28;20037;-62
2023/10/08 03:51:27;;;;;;;8.23;2.40;;;;;;;10.13;100.00;98067.72;5040088;28;20057;-62
2023/10/08 03:54:15;;;;;;;6.15;2.08;;;;;;;9.84;100.00;98065.66;5036637;28;20555;-61
2023/10/08 03:56:48;;;;;;;4.90;2.08;;;;;;;9.70;100.00;98062.31;5032336;28;20067;-62
2023/10/08 03:59:40;;;;;;;5.47;2.00;;;;;;;9.61;100.00;98063.69;5042186;28;20661;-62
2023/10/08 04:04:59;;;;;;;6.43;2.35;;;;;;;9.27;100.00;98064.13;5033923;28;20531;-62
2023/10/08 04:12:35;;;;;;;4.18;1.88;;;;;;;9.25;100.00;98060.78;5039593;28;20056;-61
2023/10/08 04:15:07;;;;;;;4.90;2.20;;;;;;;9.19;100.00;98064.41;5040524;28;20143;-61
2023/10/08 04:17:44;;;;;;;6.13;2.13;;;;;;;9.17;100.00;98070.03;5041460;28;20048;-61
2023/10/08 04:23:00;;;;;;;5.65;2.15;;;;;;;9.00;100.00;98064.44;5030851;28;20045;-61
2023/10/08 04:25:30;;;;;;;4.00;1.88;;;;;;;8.88;100.00;98061.63;5039271;28;20119;-61
2023/10/08 04:28:00;;;;;;;6.63;2.20;;;;;;;8.82;100.00;98055.22;5035137;28;20096;-61
2023/10/08 04:30:32;;;;;;;5.88;2.17;;;;;;;8.75;100.00;98050.97;5033582;28;20492;-61
2023/10/08 04:33:06;;;;;;;6.60;2.80;;;;;;;8.87;100.00;98051.03;5044379;28;20053;-62
2023/10/08 04:35:36;;;;;;;8.52;2.35;;;;;;;8.98;100.00;98053.00;5031413;28;20280;-61
2023/10/08 04:38:08;;;;;;;7.57;2.22;;;;;;;9.02;100.00;98051.50;5044119;28;20474;-61
2023/10/08 04:40:47;;;;;;;7.82;2.03;;;;;;;9.03;100.00;98045.03;5037673;28;20045;-61
2023/10/08 04:43:27;;;;;;;7.55;2.25;;;;;;;9.03;100.00;98055.03;5042819;28;20040;-62
2023/10/08 04:45:56;;;;;;;6.85;2.33;;;;;;;8.95;100.00;98059.69;5037482;28;20129;-61
2023/10/08 04:48:31;;;;;;;6.95;2.40;;;;;;;9.00;100.00;98061.72;5040190;28;20069;-61
2023/10/08 04:50:59;;;;;;;5.72;1.85;;;;;;;9.09;100.00;98054.97;5035896;28;20033;-62
2023/10/08 04:53:37;;;;;;;8.20;2.15;;;;;;;9.00;100.00;98064.44;5043175;28;20044;-61
2023/10/08 04:56:06;;;;;;;4.47;1.95;;;;;;;8.67;100.00;98055.59;5033347;28;20069;-61
2023/10/08 04:58:36;;;;;;;5.63;2.00;;;;;;;8.70;100.00;98063.25;5037723;28;20112;-62
2023/10/08 05:09:38;;;;;;;4.95;1.80;;;;;;;8.75;100.00;98067.16;5031999;28;20045;-61
2023/10/08 05:12:10;;;;;;;6.93;1.95;;;;;;;8.79;100.00;98071.06;5036086;28;20091;-62
2023/10/08 05:14:55;;;;;;;6.43;2.38;;;;;;;8.83;100.00;98078.50;5037536;28;20051;-61
2023/10/08 05:17:22;;;;;;;5.28;2.15;;;;;;;8.88;100.00;98082.41;5041984;28;20068;-62
2023/10/08 05:22:43;;;;;;;5.10;1.98;;;;;;;9.11;100.00;98079.06;5043784;28;20045;-61
2023/10/08 05:25:24;;;;;;;8.00;2.13;;;;;;;9.20;100.00;98074.16;5043094;28;20166;-61
2023/10/08 05:33:06;;;;;;;6.57;2.58;;;;;;;9.39;100.00;98077.69;5044744;28;20045;-61
2023/10/08 05:49:03;;;;;;;6.13;2.53;;;;;;;9.85;100.00;98086.22;5035997;28;20080;-61
2023/10/08 06:13:26;;;;;;;9.18;2.53;;;;;;;10.17;100.00;98093.28;5043199;28;20636;-61
2023/10/08 06:18:26;;;;;;;7.60;2.67;;;;;;;10.25;100.00;98089.44;5036987;28;20674;-62
2023/10/08 06:20:54;;;;;;;7.72;2.80;;;;;;;10.26;100.00;98086.50;5038559;28;20119;-61
2023/10/08 06:23:25;;;;;;;6.88;2.75;;;;;;;10.36;100.00;98080.47;5037148;28;20497;-61
2023/10/08 06:25:58;;;;;;;8.63;3.17;;;;;;;10.37;100.00;98078.59;5035436;28;20060;-61
2023/10/08 06:28:26;;;;;;;7.30;2.75;;;;;;;10.45;100.00;98082.88;5038702;28;20134;-61
2023/10/08 06:30:55;;;;;;;8.00;3.60;;;;;;;10.50;100.00;98078.41;5035461;28;20051;-61
2023/10/08 06:33:25;;;;;;;8.80;3.03;;;;;;;10.56;100.00;98067.72;5036841;28;20037;-61
2023/10/08 06:38:40;;;;;;;6.80;2.75;;;;;;;10.71;100.00;98075.38;5035414;28;20106;-61
2023/10/08 06:41:10;;;;;;;8.80;2.80;;;;;;;10.79;100.00;98085.84;5042154;28;20635;-61
2023/10/08 06:43:37;;;;;;;7.13;2.80;;;;;;;10.88;100.00;98081.72;5034606;28;20048;-61
2023/10/08 06:46:07;;;;;;;9.75;3.05;;;;;;;10.96;100.00;98080.56;5038621;28;20504;-61
2023/10/08 06:48:34;;;;;;;9.65;3.42;;;;;;;11.14;100.00;98086.88;5037783;28;20327;-61
2023/10/08 06:51:13;;;;;;;9.43;3.80;;;;;;;11.32;100.00;98089.44;5043671;28;20041;-61
2023/10/08 06:53:45;;;;;;;9.13;3.65;;;;;;;11.47;99.25;98093.56;5034985;28;20045;-61
2023/10/08 06:56:12;;;;;;;;;;;;;;;11.60;98.81;98089.72;5039790;28;20144;-61
2023/10/08 06:58:45;;;;;;;8.15;3.55;;;;;;;11.78;98.01;98087.88;5036079;28;19964;-61
2023/10/08 07:01:13;;;;;;;9.40;3.55;;;;;;;11.89;98.02;98089.75;5034585;28;20433;-62
2023/10/08 07:03:39;;;;;;;13.05;4.13;;;;;;;12.06;96.27;98087.06;5047285;28;20500;-62
2023/10/08 07:08:55;;;;;;;8.57;2.78;;;;;;;12.35;94.89;98097.09;5037819;28;20094;-63
2023/10/08 07:11:22;;;;;;;9.02;2.63;;;;;;;12.47;93.94;98097.00;5039099;28;20045;-63
2023/10/08 07:13:51;;;;;;;6.47;2.30;;;;;;;12.58;92.62;98100.72;5038740;28;20076;-63
2023/10/08 07:16:17;;;;;;;6.97;2.75;;;;;;;12.77;91.31;98106.72;5038365;28;20060;-63
2023/10/08 07:18:55;;;;;;;8.77;2.42;;;;;;;12.87;90.83;98122.38;5034312;28;20041;-63
2023/10/08 07:21:29;;;;;;;9.35;2.50;;;;;;;12.94;90.42;98128.44;5041173;28;20036;-62
2023/10/08 07:23:56;;;;;;;5.50;2.13;;;;;;;12.99;90.62;98133.13;5036539;28;20061;-62
2023/10/08 07:26:25;;;;;;;8.13;2.58;;;;;;;13.07;90.22;98143.59;5036806;28;20071;-62
2023/10/08 07:28:53;;;;;;;7.63;3.00;;;;;;;13.19;95.21;98135.31;5042068;28;20094;-63
2023/10/08 07:31:23;;;;;;;12.60;2.60;;;;;;;13.24;95.21;98143.53;5034202;28;20056;-63
2023/10/08 07:33:58;;;;;;;6.80;2.38;;;;;;;13.34;94.63;98145.59;5037446;28;20052;-62
2023/10/08 07:36:29;;;;;;;9.25;2.50;;;;;;;13.50;92.01;98137.69;5029392;28;20468;-64
2023/10/08 07:38:55;;;;;;;8.07;2.38;;;;;;;13.64;90.85;98132.69;5040518;28;20049;-63
2023/10/08 07:41:23;;;;;;;9.07;3.03;;;;;;;13.82;92.23;98125.28;5034520;28;20037;-63
2023/10/08 07:43:58;;;;;;;7.72;2.40;;;;;;;13.96;89.61;98126.50;5045845;28;20047;-62
2023/10/08 07:46:28;;;;;;;5.53;2.20;;;;;;;14.07;89.66;98132.06;5026854;28;20258;-63
2023/10/08 07:48:55;;;;;;;8.48;2.55;;;;;;;14.13;89.53;98136.47;5032798;28;20429;-63
2023/10/08 07:51:21;;;;;;;7.40;2.58;;;;;;;14.17;88.95;98138.44;5039410;28;20606;-62
2023/10/08 07:53:55;;;;;;;7.65;2.83;;;;;;;14.22;88.39;98145.03;5040017;28;20045;-63
2023/10/08 07:56:26;;;;;;;12.05;3.03;;;;;;;14.24;95.57;98137.41;5043588;28;20041;-62
2023/10/08 07:58:56;;;;;;;6.72;2.85;;;;;;;14.08;100.00;98131.00;5038142;28;20046;-63
2023/10/08 08:01:27;;;;;;;8.32;3.38;;;;;;;13.99;99.85;98126.00;5026029;28;20451;-62
2023/10/08 08:03:53;;;;;;;6.38;2.45;;;;;;;13.95;100.00;98119.41;5041855;28;20629;-63
2023/10/08 08:06:22;;;;;;;6.85;3.03;;;;;;;14.03;96.84;98131.75;5044265;28;20071;-61
2023/10/08 08:08:49;;;;;;;8.07;2.47;;;;;;;14.16;94.38;98131.34;5042291;28;20047;-61
2023/10/08 08:11:18;;;;;;;9.23;2.80;;;;;;;14.23;93.50;98131.13;5043389;28;20041;-60
2023/10/08 08:13:46;;;;;;;9.45;2.75;;;;;;;14.42;93.79;98134.31;5034358;28;20500;-61
2023/10/08 08:16:17;;;;;;;6.78;2.60;;;;;;;14.59;91.37;98135.28;5045397;28;20098;-61
2023/10/08 08:18:48;;;;;;;8.05;2.25;;;;;;;14.68;90.37;98158.25;5041611;28;20520;-60
2023/10/08 08:21:16;;;;;;;6.28;2.10;;;;;;;14.81;90.03;98174.19;5040267;28;20037;-60
2023/10/08 08:23:49;;;;;;;7.05;2.38;;;;;;;14.97;89.52;98170.78;5038559;28;20037;-61
2023/10/08 08:26:26;;;;;;;5.97;2.60;;;;;;;15.10;87.84;98162.13;5039518;28;20056;-63
2023/10/08 08:28:55;;;;;;;6.53;2.67;;;;;;;15.24;87.05;98173.41;5044663;28;20048;-63
2023/10/08 08:31:21;;;;;;;7.65;2.15;;;;;;;15.39;84.24;98185.50;5039363;28;20043;-62
2023/10/08 08:33:56;;;;;;;5.00;2.50;;;;;;;15.57;82.58;98186.97;5042293;28;20049;-63
2023/10/08 08:36:24;;;;;;;6.65;3.22;;;;;;;15.79;81.39;98197.75;5036037;28;20056;-62
2023/10/08 08:38:51;;;;;;;7.40;2.58;;;;;;;16.02;80.57;98201.13;5038866;28;20066;-63
2023/10/08 08:41:18;;;;;;;6.07;2.72;;;;;;;16.18;78.85;98209.41;5040302;28;20490;-64
2023/10/08 08:43:48;;;;;;;10.00;2.63;;;;;;;16.30;78.62;98204.53;5048305;28;20782;-63
2023/10/08 08:46:15;;;;;;;7.68;2.42;;;;;;;16.48;77.14;98213.31;5040053;28;20041;-62
2023/10/08 08:48:46;;;;;;;8.13;2.35;;;;;;;16.66;76.58;98211.16;5036320;28;20513;-62
2023/10/08 08:51:13;;;;;;;7.20;2.47;;;;;;;16.81;76.47;98207.59;5039762;28;20095;-62
2023/10/08 08:53:41;;;;;;;7.78;2.63;;;;;;;16.98;76.23;98210.06;5039243;28;20052;-61
2023/10/08 08:56:09;;;;;;;6.32;2.53;;;;;;;17.24;73.16;98193.66;5033265;28;20048;-62
2023/10/08 08:58:37;;;;;;;4.75;2.08;;;;;;;17.39;73.18;98198.28;5044399;28;20127;-62
2023/10/08 09:01:07;;;;;;;7.90;2.50;;;;;;;17.48;72.04;98195.81;5046849;28;20507;-61
2023/10/08 09:03:34;;;;;;;8.05;2.90;;;;;;;17.60;72.82;98196.34;5040277;28;20057;-62
2023/10/08 09:06:01;;;;;;;9.50;2.63;;;;;;;17.84;67.65;98200.38;5038567;28;20120;-62
2023/10/08 09:08:33;;;;;;;6.25;1.95;;;;;;;18.16;66.86;98197.25;5044402;28;20066;-62
2023/10/08 09:11:01;;;;;;;6.15;2.67;;;;;;;18.32;66.67;98192.50;5040731;28;20073;-62
2023/10/08 09:13:28;;;;;;;6.38;2.55;;;;;;;18.53;65.45;98197.03;5036103;28;20115;-62
2023/10/08 09:16:15;;;;;;;7.03;2.55;;;;;;;18.67;64.27;98200.78;5043822;28;20045;-62
2023/10/08 09:18:47;;;;;;;5.60;1.67;;;;;;;18.93;62.80;98199.78;5043691;28;20052;-62
2023/10/08 09:21:18;;;;;;;7.13;2.65;;;;;;;19.17;61.23;98199.06;5046167;28;20048;-62
2023/10/08 09:23:50;;;;;;;6.50;2.80;;;;;;;19.55;60.93;98199.25;5035320;28;20053;-62
2023/10/08 09:26:18;;;;;;;7.50;2.40;;;;;;;19.74;58.48;98204.81;5032291;28;20132;-62
2023/10/08 09:28:49;;;;;;;7.18;2.08;;;;;;;19.83;57.37;98207.69;5031853;28;20117;-62
2023/10/08 09:31:17;;;;;;;6.88;2.00;;;;;;;19.81;57.17;98196.19;5036501;28;20128;-62
2023/10/08 09:33:53;;;;;;;7.07;2.30;;;;;;;19.85;56.35;98186.25;5037020;28;20033;-62
2023/10/08 09:36:31;;;;;;;5.57;2.30;;;;;;;19.94;55.83;98185.63;5038928;28;20056;-62
2023/10/08 09:39:04;;;;;;;6.47;2.40;;;;;;;20.00;55.62;98174.28;5037382;28;20048;-62
2023/10/08 09:41:32;;;;;;;7.93;2.60;;;;;;;20.11;55.69;98169.47;5038320;28;20029;-62
2023/10/08 09:43:59;;;;;;;6.63;2.28;;;;;;;20.23;54.98;98173.72;5047634;28;20673;-62
2023/10/08 09:46:34;;;;;;;6.88;2.40;;;;;;;20.29;55.02;98180.78;5046827;28;20455;-62
2023/10/08 09:49:01;;;;;;;7.55;2.45;;;;;;;20.36;53.34;98181.25;5042683;28;20045;-62
2023/10/08 09:51:31;;;;;;;8.95;2.63;;;;;;;20.40;53.36;98179.53;5035622;28;20663;-62
2023/10/08 09:54:32;;;;;;;7.70;2.65;;;;;;;20.47;53.93;98186.56;5047090;28;20067;-62
2023/10/08 09:57:03;;;;;;;7.07;2.65;;;;;;;20.52;52.14;98181.81;5042046;28;20033;-62
2023/10/08 09:59:30;;;;;;;7.70;2.78;;;;;;;20.64;53.09;98177.81;5043720;28;20045;-62
2023/10/08 10:01:59;;;;;;;7.32;2.55;;;;;;;20.74;52.87;98185.91;5045317;28;20047;-62
2023/10/08 10:04:31;;;;;;;7.55;2.47;;;;;;;20.82;50.24;98184.38;5044115;28;20033;-62
2023/10/08 10:07:12;;;;;;;7.18;2.63;;;;;;;20.95;50.22;98188.34;5032657;28;20720;-62
2023/10/08 10:09:43;;;;;;;7.28;2.88;;;;;;;21.01;51.40;98181.63;5040664;28;20049;-62
2023/10/08 10:12:11;;;;;;;10.23;3.55;;;;;;;21.09;51.67;98198.59;5038330;28;20091;-62
2023/10/08 10:14:48;;;;;;;10.25;3.35;;;;;;;21.11;50.70;98202.66;5040508;28;20043;-62
2023/10/08 10:17:22;;;;;;;13.27;3.30;;;;;;;21.14;47.78;98201.25;5037435;28;20071;-62
2023/10/08 10:20:13;;;;;;;7.60;2.83;;;;;;;21.18;48.52;98205.84;5041737;28;20044;-62
2023/10/08 10:22:42;;;;;;;;;;;;;;;21.11;48.94;98207.38;5047610;28;20106;-62
2023/10/08 10:25:14;;;;;;;7.10;2.78;;;;;;;21.07;49.12;98209.09;5045861;28;19925;-62
2023/10/08 10:27:55;;;;;;;8.30;2.83;;;;;;;21.04;49.61;98199.47;5041978;28;20957;-62
2023/10/08 10:30:23;;;;;;;8.30;3.00;;;;;;;21.06;49.64;98205.50;5042059;28;20043;-62
2023/10/08 10:32:54;;;;;;;7.50;2.35;;;;;;;21.12;50.02;98198.00;5040967;28;20049;-62
2023/10/08 10:35:21;;;;;;;7.30;2.90;;;;;;;21.25;50.28;98204.63;5036554;28;20081;-62
2023/10/08 10:37:55;;;;;;;7.43;2.60;;;;;;;21.32;49.95;98202.31;5038933;28;20112;-62
2023/10/08 10:40:29;;;;;;;8.52;2.80;;;;;;;21.42;49.68;98213.13;5033579;28;20431;-62
2023/10/08 10:42:56;;;;;;;8.38;2.92;;;;;;;21.63;48.98;98207.25;5035053;28;20122;-62
2023/10/08 10:45:35;;;;;;;10.20;2.88;;;;;;;21.75;48.19;98205.97;5040190;28;20037;-62
2023/10/08 10:48:21;;;;;;;7.50;2.55;;;;;;;21.92;47.40;98213.63;5041053;28;20102;-62
2023/10/08 10:53:32;;;;;;;11.20;3.33;;;;;;;22.04;45.01;98202.91;5040542;28;20041;-63
2023/10/08 10:56:03;;;;;;;9.15;3.00;;;;;;;21.95;45.72;98213.84;5050175;28;20040;-63
2023/10/08 10:58:38;;;;;;;7.72;3.40;;;;;;;21.81;45.80;98207.50;5040544;28;20036;-62
2023/10/08 11:01:23;;;;;;;12.23;3.80;;;;;;;21.62;46.57;98211.13;5041838;28;20037;-61
2023/10/08 11:03:57;;;;;;;8.48;3.25;;;;;;;21.44;46.71;98205.41;5038567;28;20557;-62
2023/10/08 11:06:25;;;;;;;11.60;2.80;;;;;;;21.29;47.83;98200.16;5046300;28;20052;-62
2023/10/08 11:08:53;;;;;;;7.72;2.63;;;;;;;21.22;49.02;98194.25;5039104;28;20043;-62
2023/10/08 11:11:29;;;;;;;10.23;2.97;;;;;;;21.13;47.45;98205.94;5031771;28;20042;-62
2023/10/08 11:14:00;;;;;;;9.20;2.92;;;;;;;21.02;47.44;98186.03;5034453;28;20034;-62
2023/10/08 11:16:27;;;;;;;8.75;2.72;;;;;;;20.98;47.57;98197.94;5036076;28;20601;-62
2023/10/08 11:19:00;;;;;;;8.52;2.75;;;;;;;20.94;46.48;98206.00;5038369;28;20045;-62
2023/10/08 11:21:31;;;;;;;7.78;2.60;;;;;;;20.99;47.49;98194.88;5041156;28;20048;-62
2023/10/08 11:24:08;;;;;;;8.48;2.63;;;;;;;21.00;47.13;98187.44;5039302;28;20119;-62
2023/10/08 11:26:38;;;;;;;10.13;3.53;;;;;;;21.02;47.67;98191.53;5042077;28;20060;-62
2023/10/08 11:29:13;;;;;;;7.28;2.75;;;;;;;21.15;47.31;98194.63;5037285;28;20052;-62
2023/10/08 11:31:41;;;;;;;10.52;3.20;;;;;;;21.20;47.26;98188.22;5034758;28;20049;-62
2023/10/08 11:34:13;;;;;;;10.35;3.55;;;;;;;21.27;47.88;98186.69;5041615;28;20032;-62
2023/10/08 11:36:48;;;;;;;11.65;3.35;;;;;;;21.43;47.16;98176.22;5041842;28;21744;-62
2023/10/08 11:39:22;;;;;;;9.50;3.50;;;;;;;21.72;47.92;98168.78;5048720;28;20037;-62
2023/10/08 11:42:03;;;;;;;11.57;2.95;;;;;;;;;;5039816;28;20041;-62
2023/10/08 11:44:35;;;;;;;8.95;3.17;;;;;;;22.25;44.94;98163.84;5034450;28;20541;-61
2023/10/08 11:47:13;;;;;;;13.38;3.28;;;;;;;22.48;44.68;98163.88;5036266;28;20045;-61
2023/10/08 11:50:09;;;;;;;9.27;3.05;;;;;;;22.64;43.99;98155.28;5039989;28;20135;-62
2023/10/08 11:52:44;;;;;;;9.23;2.67;;;;;;;22.85;41.16;98155.59;5038964;28;20072;-61
2023/10/08 11:55:18;;;;;;;10.85;4.05;;;;;;;22.96;40.86;98147.88;5036694;28;20131;-62
2023/10/08 11:57:50;;;;;;;14.82;2.95;;;;;;;23.12;41.07;98148.28;5036191;28;20041;-62
2023/10/08 12:00:19;;;;;;;;;;;;;;;23.11;40.79;98141.16;5039603;28;20510;-62
2023/10/08 12:02:49;;;;;;;16.67;4.07;;;;;;;23.06;41.67;98147.59;5038784;28;20546;-62
2023/10/08 12:05:19;;;;;;;13.70;4.07;;;;;;;22.94;41.55;98148.19;5036709;28;20120;-62
2023/10/08 12:07:47;;;;;;;11.77;3.33;;;;;;;22.94;41.88;98145.44;5025813;28;20048;-62
2023/10/08 12:10:16;;;;;;;11.18;3.05;;;;;;;23.06;41.78;98141.25;5033401;28;20052;-62
2023/10/08 12:12:45;;;;;;;13.07;2.85;;;;;;;23.12;41.97;98137.25;5030642;28;20030;-62
2023/10/08 12:15:19;;;;;;;11.35;3.08;;;;;;;23.17;40.63;98144.56;5043723;28;20497;-62
2023/10/08 12:20:37;;;;;;;10.80;3.10;;;;;;;23.34;40.42;98146.63;5030353;28;20050;-62
2023/10/08 12:23:05;;;;;;;9.88;2.80;;;;;;;23.39;39.67;98146.50;5036879;28;20404;-62
2023/10/08 12:25:32;;;;;;;12.65;3.42;;;;;;;23.41;39.79;98144.25;5041573;28;20568;-62
2023/10/08 12:28:03;;;;;;;12.82;3.00;;;;;;;23.46;39.08;98140.50;5031353;28;20048;-62
2023/10/08 12:30:31;;;;;;;12.38;3.28;;;;;;;23.59;39.06;98150.63;5042848;28;20075;-62
2023/10/08 12:32:59;;;;;;;8.18;2.75;;;;;;;23.55;38.93;98144.13;5032060;28;20048;-62
2023/10/08 12:35:29;;;;;;;15.43;3.03;;;;;;;23.61;38.68;98153.09;5036633;28;20044;-62
2023/10/08 12:37:56;;;;;;;15.30;3.35;;;;;;;23.63;38.86;98154.38;5045198;28;20040;-63
2023/10/08 12:40:23;;;;;;;11.93;3.83;;;;;;;23.67;39.17;98146.28;5039864;28;20128;-62
2023/10/08 12:42:54;;;;;;;9.23;3.15;;;;;;;23.68;38.05;98145.16;5039477;28;20123;-62
2023/10/08 12:45:20;;;;;;;14.45;3.25;;;;;;;23.78;37.63;98147.59;5041771;28;20108;-61
2023/10/08 12:47:51;;;;;;;11.35;3.15;;;;;;;23.90;38.07;98143.41;5037203;28;20540;-62
2023/10/08 12:50:42;;;;;;;10.50;3.70;;;;;;;23.86;38.32;98137.72;5045777;28;20539;-61
2023/10/08 12:53:11;;;;;;;11.20;2.72;;;;;;;23.94;38.84;98136.09;5039378;28;20419;-62
2023/10/08 12:55:41;;;;;;;12.68;3.03;;;;;;;23.95;38.13;98129.44;5038139;28;20064;-62
2023/10/08 12:58:10;;;;;;;16.55;4.03;;;;;;;23.97;37.63;98124.41;5035921;28;20055;-62
2023/10/08 13:00:49;;;;;;;10.13;2.83;;;;;;;24.02;37.25;98121.47;5046285;28;20052;-62
2023/10/08 13:03:22;;;;;;;12.70;4.18;;;;;;;24.10;37.77;98117.13;5042099;28;20120;-62
2023/10/08 13:05:52;;;;;;;12.93;3.13;;;;;;;24.26;37.19;98116.66;5042916;28;20690;-63
2023/10/08 13:08:20;;;;;;;14.18;3.60;;;;;;;24.37;37.53;98104.13;5047961;28;20082;-60
2023/10/08 13:10:47;;;;;;;14.95;3.22;;;;;;;24.34;36.22;98106.72;5037115;28;20111;-61
2023/10/08 13:13:14;;;;;;;11.57;3.08;;;;;;;24.42;37.65;98098.44;5041945;28;20048;-61
2023/10/08 13:15:44;;;;;;;9.23;2.97;;;;;;;24.58;37.48;98103.44;5042121;28;20053;-61
2023/10/08 13:18:10;;;;;;;10.98;3.30;;;;;;;24.62;36.87;98106.38;5043244;28;20041;-61